Terminal Aerodrome Forecast
Issued by NWS

Home | Current Version | Previous Version | Text Only | Print | Product List | Glossary Off
Versions: 1 2 3 4 5 6 7 8 9 10 11 12 13 14 15 16 17

421
FTUS43 KTOP 171721 CCA
TAFFOE
TAF COR
KFOE 171721Z 1718/1818 30007KT P6SM BKN012
     FM171900 29006KT P6SM SCT040
     FM180600 VRB03KT 5SM BR FEW120
     FM181400 VRB03KT P6SM SCT250=

USA.gov is the U.S. government's official web portal to all federal, state and local government web resources and services.